Time;durP1;ratioP1;P1;durP2;ratioP2;P2;SDS_P1;SDS_P2;PMS_P1;PMS_P2;Temp;Humidity;BMP_temperature;BMP_pressure;BME280_temperature;BME280_humidity;BME280_pressure;Samples;Min_cycle;Max_cycle;Signal;HPM_P1;HPM_P2
2023/05/30 00:02:15;;;;;;;;;;;;;;;;;;137541;1273;22883;-80
2023/05/30 00:05:18;;;;;;;;;;;;;;;;;;137645;1261;22518;-80
2023/05/30 00:08:21;;;;;;;;;;;;;;;;;;137627;1273;22483;-80
2023/05/30 00:11:28;;;;;;;;;;;;;;;;;;137497;1272;22460;-80
2023/05/30 00:14:30;;;;;;;;;;;;;;;;;;137461;1272;23042;-80
2023/05/30 00:17:35;;;;;;;;;;;;;;;;;;137579;1273;23146;-79
2023/05/30 00:20:38;;;;;;;;;;;;;;;;;;137591;1272;23049;-80
2023/05/30 00:23:40;;;;;;;;;;;;;;;;;;137531;1273;22503;-80
2023/05/30 00:26:43;;;;;;;;;;;;;;;;;;137611;1272;22576;-81
2023/05/30 00:29:46;;;;;;;;;;;;;;;;;;137650;1272;22525;-79
2023/05/30 00:32:48;;;;;;;;;;;;;;;;;;137640;1273;22514;-81
2023/05/30 00:35:50;;;;;;;;;;;;;;;;;;137469;1272;22546;-82
2023/05/30 00:38:53;;;;;;;;;;;;;;;;;;137548;1272;22513;-81
2023/05/30 00:41:55;;;;;;;;;;;;;;;;;;137585;1273;22596;-81
2023/05/30 00:44:58;;;;;;;;;;;;;;;;;;137538;1274;22304;-80
2023/05/30 00:48:03;;;;;;;;;;;;;;;;;;137511;1274;22496;-80
2023/05/30 00:51:06;;;;;;;;;;;;;;;;;;137531;1274;22280;-81
2023/05/30 00:54:09;;;;;;;;;;;;;;;;;;137516;1274;22332;-81
2023/05/30 00:57:11;;;;;;;;;;;;;;;;;;137503;1274;22490;-81
2023/05/30 01:00:14;;;;;;;;;;;;;;;;;;137498;1274;22519;-81
2023/05/30 01:03:16;;;;;;;;;;;;;;;;;;137484;1274;22536;-81
2023/05/30 01:06:20;;;;;;;;;;;;;;;;;;137573;1274;22975;-81
2023/05/30 01:09:22;;;;;;;;;;;;;;;;;;137492;1274;23087;-81
2023/05/30 01:12:25;;;;;;;;;;;;;;;;;;137551;1274;22549;-81
2023/05/30 01:15:27;;;;;;;;;;;;;;;;;;137383;1274;22536;-79
2023/05/30 01:18:30;;;;;;;;;;;;;;;;;;137445;1274;22564;-82
2023/05/30 01:21:33;;;;;;;;;;;;;;;;;;137443;1274;22481;-82
2023/05/30 01:24:35;;;;;;;;;;;;;;;;;;137449;1274;22492;-82
2023/05/30 01:27:37;;;;;;;;;;;;;;;;;;137454;1274;22537;-82
2023/05/30 01:30:40;;;;;;;;;;;;;;;;;;137486;1274;22570;-82
2023/05/30 01:33:45;;;;;;;;;;;;;;;;;;137562;1274;22482;-81
2023/05/30 01:36:47;;;;;;;;;;;;;;;;;;137469;1274;22527;-82
2023/05/30 01:39:50;;;;;;;;;;;;;;;;;;137514;1274;22510;-81
2023/05/30 01:42:52;;;;;;;;;;;;;;;;;;137424;1274;23087;-81
2023/05/30 01:45:55;;;;;;;;;;;;;;;;;;137427;1274;22568;-82
2023/05/30 01:48:57;;;;;;;;;;;;;;;;;;137504;1274;22495;-82
2023/05/30 01:52:00;;;;;;;;;;;;;;;;;;137565;1274;22346;-81
2023/05/30 01:55:03;;;;;;;;;;;;;;;;;;137563;1274;22429;-82
2023/05/30 01:58:05;;;;;;;;;;;;;;;;;;137405;1274;22506;-81
2023/05/30 02:01:08;;;;;;;;;;;;;;;;;;137517;1274;22487;-82
2023/05/30 02:04:10;;;;;;;;;;;;;;;;;;137565;1272;22287;-82
2023/05/30 02:07:13;;;;;;;;;;;;;;;;;;137485;1274;23016;-82
2023/05/30 02:10:15;;;;;;;;;;;;;;;;;;137463;1274;22490;-81
2023/05/30 02:13:18;;;;;;;;;;;;;;;;;;137504;1274;22988;-82
2023/05/30 02:16:20;;;;;;;;;;;;;;;;;;137539;1274;22493;-84
2023/05/30 02:19:23;;;;;;;;;;;;;;;;;;137407;1274;22534;-83
2023/05/30 02:22:25;;;;;;;;;;;;;;;;;;137448;1274;22545;-81
2023/05/30 02:25:28;;;;;;;;;;;;;;;;;;137519;1274;22341;-81
2023/05/30 02:28:30;;;;;;;;;;;;;;;;;;137515;1274;22374;-81
2023/05/30 02:31:33;;;;;;;;;;;;;;;;;;137546;1274;22313;-81
2023/05/30 02:34:35;;;;;;;;;;;;;;;;;;137465;1274;22779;-81
2023/05/30 02:37:39;;;;;;;;;;;;;;;;;;137462;1274;22534;-82
2023/05/30 02:40:45;;;;;;;;;;;;;;;;;;137542;1274;22294;-82
2023/05/30 02:43:49;;;;;;;;;;;;;;;;;;137500;1274;22585;-81
2023/05/30 02:46:51;;;;;;;;;;;;;;;;;;137470;1274;22855;-81
2023/05/30 02:49:54;;;;;;;;;;;;;;;;;;137490;1274;22957;-81
2023/05/30 02:52:57;;;;;;;;;;;;;;;;;;137558;1274;22327;-81
2023/05/30 02:56:00;;;;;;;;;;;;;;;;;;137389;1274;22489;-81
2023/05/30 02:59:03;;;;;;;;;;;;;;;;;;137457;1274;22530;-81
2023/05/30 03:02:05;;;;;;;;;;;;;;;;;;137507;1274;22563;-81
2023/05/30 03:05:10;;;;;;;;;;;;;;;;;;137482;1274;22635;-81
2023/05/30 03:08:13;;;;;;;;;;;;;;;;;;137465;1274;22488;-81
2023/05/30 03:11:15;;;;;;;;;;;;;;;;;;137410;1274;22549;-81
2023/05/30 03:14:18;;;;;;;;;;;;;;;;;;137470;1274;22524;-81
2023/05/30 03:17:20;;;;;;;;;;;;;;;;;;137506;1274;22519;-82
2023/05/30 03:20:23;;;;;;;;;;;;;;;;;;137564;1274;22384;-81
2023/05/30 03:23:25;;;;;;;;;;;;;;;;;;137507;1274;22513;-82
2023/05/30 03:26:28;;;;;;;;;;;;;;;;;;137608;1274;22516;-81
2023/05/30 03:29:31;;;;;;;;;;;;;;;;;;137508;1274;22492;-81
2023/05/30 03:32:33;;;;;;;;;;;;;;;;;;137469;1274;22573;-81
2023/05/30 03:35:35;;;;;;;;;;;;;;;;;;137511;1274;22402;-82
2023/05/30 03:38:38;;;;;;;;;;;;;;;;;;137548;1274;22341;-82
2023/05/30 03:41:40;;;;;;;;;;;;;;;;;;137372;1274;22636;-83
2023/05/30 03:44:46;;;;;;;;;;;;;;;;;;137521;1274;22333;-81
2023/05/30 03:47:48;;;;;;;;;;;;;;;;;;137446;1274;22544;-81
2023/05/30 03:50:52;;;;;;;;;;;;;;;;;;137512;1263;22315;-82
2023/05/30 03:53:54;;;;;;;;;;;;;;;;;;137502;1263;22436;-81
2023/05/30 03:56:57;;;;;;;;;;;;;;;;;;137416;1274;22391;-78
2023/05/30 03:59:59;;;;;;;;;;;;;;;;;;137419;1274;22317;-81
2023/05/30 04:03:02;;;;;;;;;;;;;;;;;;137544;1274;22363;-80
2023/05/30 04:06:05;;;;;;;;;;;;;;;;;;137526;1274;22318;-81
2023/05/30 04:09:08;;;;;;;;;;;;;;;;;;137424;1274;22804;-82
2023/05/30 04:12:11;;;;;;;;;;;;;;;;;;137487;1274;22393;-81
2023/05/30 04:15:15;;;;;;;;;;;;;;;;;;137460;1274;22966;-84
2023/05/30 04:18:18;;;;;;;;;;;;;;;;;;137497;1274;22324;-82
2023/05/30 04:21:20;;;;;;;;;;;;;;;;;;137463;1274;22344;-81
2023/05/30 04:24:23;;;;;;;;;;;;;;;;;;137494;1274;22393;-82
2023/05/30 04:27:25;;;;;;;;;;;;;;;;;;137506;1274;22332;-82
2023/05/30 04:30:30;;;;;;;;;;;;;;;;;;137478;1274;22327;-82
2023/05/30 04:33:34;;;;;;;;;;;;;;;;;;137450;1274;22270;-81
2023/05/30 04:36:37;;;;;;;;;;;;;;;;;;137483;1274;23181;-80
2023/05/30 04:39:39;;;;;;;;;;;;;;;;;;137453;1274;22348;-83
2023/05/30 04:42:42;;;;;;;;;;;;;;;;;;137480;1274;22400;-82
2023/05/30 04:45:44;;;;;;;;;;;;;;;;;;137494;1275;22280;-82
2023/05/30 04:48:48;;;;;;;;;;;;;;;;;;137522;1274;23187;-82
2023/05/30 04:51:51;;;;;;;;;;;;;;;;;;137493;1274;22827;-85
2023/05/30 04:54:55;;;;;;;;;;;;;;;;;;137477;1274;22417;-84
2023/05/30 04:57:57;;;;;;;;;;;;;;;;;;137493;1274;22353;-85
2023/05/30 05:01:02;;;;;;;;;;;;;;;;;;137286;1274;22518;-84
2023/05/30 05:04:08;;;;;;;;;;;;;;;;;;137269;1274;22583;-85
2023/05/30 05:07:10;;;;;;;;;;;;;;;;;;137301;1274;22480;-85
2023/05/30 05:10:20;;;;;;;;;;;;;;;;;;137451;1270;22301;-80
2023/05/30 05:13:22;;;;;;;;;;;;;;;;;;137436;1274;22271;-81
2023/05/30 05:16:25;;;;;;;;;;;;;;;;;;137314;1274;22563;-83
2023/05/30 05:19:27;;;;;;;;;;;;;;;;;;137297;1274;22498;-82
2023/05/30 05:22:32;;;;;;;;;;;;;;;;;;137475;1273;22374;-82
2023/05/30 05:25:35;;;;;;;;;;;;;;;;;;137340;1274;22486;-83
2023/05/30 05:28:37;;;;;;;;;;;;;;;;;;137417;1274;22586;-83
2023/05/30 05:31:40;;;;;;;;;;;;;;;;;;137291;1274;22657;-83
2023/05/30 05:34:42;;;;;;;;;;;;;;;;;;137450;1274;22328;-83
2023/05/30 05:37:45;;;;;;;;;;;;;;;;;;137484;1274;22891;-84
2023/05/30 05:40:47;;;;;;;;;;;;;;;;;;137433;1274;22555;-85
2023/05/30 05:43:50;;;;;;;;;;;;;;;;;;137468;1274;22840;-84
2023/05/30 05:46:53;;;;;;;;;;;;;;;;;;137305;1274;22548;-83
2023/05/30 05:49:56;;;;;;;;;;;;;;;;;;137303;1274;22539;-82
2023/05/30 05:52:58;;;;;;;;;;;;;;;;;;137474;1274;22911;-80
2023/05/30 05:56:01;;;;;;;;;;;;;;;;;;137298;1274;22518;-83
2023/05/30 05:59:04;;;;;;;;;;;;;;;;;;137494;1274;22559;-81
2023/05/30 06:02:06;;;;;;;;;;;;;;;;;;137459;1270;22448;-81
2023/05/30 06:05:09;;;;;;;;;;;;;;;;;;137455;1274;22244;-81
2023/05/30 06:08:11;;;;;;;;;;;;;;;;;;137495;1274;22295;-80
2023/05/30 06:11:14;;;;;;;;;;;;;;;;;;137472;1274;22452;-82
2023/05/30 06:14:16;;;;;;;;;;;;;;;;;;137344;1274;23428;-82
2023/05/30 06:17:19;;;;;;;;;;;;;;;;;;137409;1274;22323;-80
2023/05/30 06:20:21;;;;;;;;;;;;;;;;;;137451;1274;22271;-81
2023/05/30 06:23:24;;;;;;;;;;;;;;;;;;137479;1274;22387;-81
2023/05/30 06:26:26;;;;;;;;;;;;;;;;;;137401;1274;22871;-81
2023/05/30 06:29:29;;;;;;;;;;;;;;;;;;137439;1274;22551;-81
2023/05/30 06:32:31;;;;;;;;;;;;;;;;;;137470;1274;22352;-80
2023/05/30 06:35:34;;;;;;;;;;;;;;;;;;137502;1270;22344;-80
2023/05/30 06:38:36;;;;;;;;;;;;;;;;;;137491;1274;22685;-80
2023/05/30 06:41:38;;;;;;;;;;;;;;;;;;137424;1271;22899;-81
2023/05/30 06:44:41;;;;;;;;;;;;;;;;;;137422;1268;22288;-82
2023/05/30 06:47:44;;;;;;;;;;;;;;;;;;137390;1272;22280;-82
2023/05/30 06:50:46;;;;;;;;;;;;;;;;;;137355;1274;22803;-82
2023/05/30 06:53:48;;;;;;;;;;;;;;;;;;137377;1274;22977;-82
2023/05/30 06:56:51;;;;;;;;;;;;;;;;;;137357;1274;162284;-82
2023/05/30 06:59:54;;;;;;;;;;;;;;;;;;137473;1274;22407;-82
2023/05/30 07:02:56;;;;;;;;;;;;;;;;;;137416;1274;22733;-82
2023/05/30 07:06:00;;;;;;;;;;;;;;;;;;137423;1274;22378;-83
2023/05/30 07:09:02;;;;;;;;;;;;;;;;;;137402;1274;22925;-83
2023/05/30 07:12:05;;;;;;;;;;;;;;;;;;137407;1274;23139;-83
2023/05/30 07:15:07;;;;;;;;;;;;;;;;;;137386;1274;22310;-85
2023/05/30 07:18:10;;;;;;;;;;;;;;;;;;137395;1274;22376;-83
2023/05/30 07:21:12;;;;;;;;;;;;;;;;;;137366;1274;22267;-83
2023/05/30 07:24:17;;;;;;;;;;;;;;;;;;137411;1274;22361;-84
2023/05/30 07:27:19;;;;;;;;;;;;;;;;;;137421;1274;22698;-84
2023/05/30 07:30:22;;;;;;;;;;;;;;;;;;137338;1274;22328;-84
2023/05/30 07:33:24;;;;;;;;;;;;;;;;;;137419;1251;22522;-82
2023/05/30 07:36:27;;;;;;;;;;;;;;;;;;137233;1274;22454;-83
2023/05/30 07:39:30;;;;;;;;;;;;;;;;;;137397;1274;22740;-84
2023/05/30 07:42:32;;;;;;;;;;;;;;;;;;137410;1267;22504;-83
2023/05/30 07:45:35;;;;;;;;;;;;;;;;;;137407;1270;22278;-83
2023/05/30 07:48:37;;;;;;;;;;;;;;;;;;137435;1270;22268;-83
2023/05/30 07:51:40;;;;;;;;;;;;;;;;;;137423;1270;22332;-83
2023/05/30 07:54:42;;;;;;;;;;;;;;;;;;137447;1274;22437;-84
2023/05/30 07:57:45;;;;;;;;;;;;;;;;;;137407;1274;22482;-86
2023/05/30 08:00:49;;;;;;;;;;;;;;;;;;137478;1274;22257;-83
2023/05/30 08:03:52;;;;;;;;;;;;;;;;;;137439;1274;22626;-82
2023/05/30 08:06:54;;;;;;;;;;;;;;;;;;137452;1274;22379;-83
2023/05/30 08:09:56;;;;;;;;;;;;;;;;;;137371;1274;22323;-82
2023/05/30 08:12:59;;;;;;;;;;;;;;;;;;137422;1274;22710;-83
2023/05/30 08:16:04;;;;;;;;;;;;;;;;;;137446;1274;22727;-85
2023/05/30 08:19:07;;;;;;;;;;;;;;;;;;137435;1274;22414;-84
2023/05/30 08:22:10;;;;;;;;;;;;;;;;;;137427;1274;22411;-86
2023/05/30 08:25:12;;;;;;;;;;;;;;;;;;137460;1270;22280;-85
2023/05/30 08:28:20;;;;;;;;;;;;;;;;;;137421;1274;22622;-86
2023/05/30 08:31:23;;;;;;;;;;;;;;;;;;137118;1274;22510;-84
2023/05/30 08:34:26;;;;;;;;;;;;;;;;;;137453;1274;22308;-84
2023/05/30 08:37:30;;;;;;;;;;;;;;;;;;137466;1274;22298;-82
2023/05/30 08:40:34;;;;;;;;;;;;;;;;;;137428;1274;22334;-82
2023/05/30 08:43:37;;;;;;;;;;;;;;;;;;137473;1274;22477;-82
2023/05/30 08:46:39;;;;;;;;;;;;;;;;;;137346;1274;22478;-82
2023/05/30 08:49:42;;;;;;;;;;;;;;;;;;137472;1274;22443;-83
2023/05/30 08:52:45;;;;;;;;;;;;;;;;;;137373;1273;22423;-83
2023/05/30 08:55:48;;;;;;;;;;;;;;;;;;137437;1274;22292;-84
2023/05/30 08:58:50;;;;;;;;;;;;;;;;;;137472;1267;22302;-84
2023/05/30 09:01:53;;;;;;;;;;;;;;;;;;137422;1274;22315;-84
2023/05/30 09:04:57;;;;;;;;;;;;;;;;;;137467;1274;22328;-83
2023/05/30 09:08:00;;;;;;;;;;;;;;;;;;137435;1274;22279;-84
2023/05/30 09:11:03;;;;;;;;;;;;;;;;;;137436;1274;22276;-83
2023/05/30 09:14:05;;;;;;;;;;;;;;;;;;137396;1274;22338;-83
2023/05/30 09:17:08;;;;;;;;;;;;;;;;;;137420;1274;22427;-82
2023/05/30 09:20:11;;;;;;;;;;;;;;;;;;137369;1274;22405;-82
2023/05/30 09:23:13;;;;;;;;;;;;;;;;;;137390;1274;22373;-83
2023/05/30 09:26:18;;;;;;;;;;;;;;;;;;137404;1274;22252;-82
2023/05/30 09:29:20;;;;;;;;;;;;;;;;;;137391;1274;22323;-84
2023/05/30 09:32:23;;;;;;;;;;;;;;;;;;137399;1274;22318;-82
2023/05/30 09:35:25;;;;;;;;;;;;;;;;;;137413;1274;22369;-83
2023/05/30 09:38:29;;;;;;;;;;;;;;;;;;137410;1274;22275;-83
2023/05/30 09:41:33;;;;;;;;;;;;;;;;;;137415;1273;22357;-86
2023/05/30 09:44:36;;;;;;;;;;;;;;;;;;137220;1273;22599;-87
2023/05/30 09:47:41;;;;;;;;;;;;;;;;;;137403;1274;22498;-86
2023/05/30 09:50:46;;;;;;;;;;;;;;;;;;137198;1271;22548;-86
2023/05/30 09:53:49;;;;;;;;;;;;;;;;;;137217;1274;22540;-86
2023/05/30 09:56:52;;;;;;;;;;;;;;;;;;137437;1274;22382;-84
2023/05/30 09:59:55;;;;;;;;;;;;;;;;;;137492;1274;22321;-84
2023/05/30 10:02:58;;;;;;;;;;;;;;;;;;137346;1274;22518;-84
2023/05/30 10:06:01;;;;;;;;;;;;;;;;;;137269;1274;22879;-84
2023/05/30 10:09:03;;;;;;;;;;;;;;;;;;137544;1270;22363;-82
2023/05/30 10:12:06;;;;;;;;;;;;;;;;;;137573;1274;22383;-83
2023/05/30 10:15:11;;;;;;;;;;;;;;;;;;137602;1274;22727;-83
2023/05/30 10:18:16;;;;;;;;;;;;;;;;;;137509;1274;22502;-83
2023/05/30 10:21:18;;;;;;;;;;;;;;;;;;137534;1274;22302;-83
2023/05/30 10:24:20;;;;;;;;;;;;;;;;;;137458;1274;22457;-85
2023/05/30 10:27:23;;;;;;;;;;;;;;;;;;137447;1274;22278;-83
2023/05/30 10:30:25;;;;;;;;;;;;;;;;;;137417;1274;22649;-82
2023/05/30 10:33:28;;;;;;;;;;;;;;;;;;137443;1274;22363;-82
2023/05/30 10:36:30;;;;;;;;;;;;;;;;;;137471;1274;22352;-84
2023/05/30 10:39:33;;;;;;;;;;;;;;;;;;137458;1274;22588;-82
2023/05/30 10:42:35;;;;;;;;;;;;;;;;;;137412;1274;22457;-82
2023/05/30 10:45:38;;;;;;;;;;;;;;;;;;137401;1274;22518;-81
2023/05/30 10:48:44;;;;;;;;;;;;;;;;;;137415;1274;22346;-81
2023/05/30 10:51:46;;;;;;;;;;;;;;;;;;137422;1274;22264;-83
2023/05/30 10:54:50;;;;;;;;;;;;;;;;;;137402;1274;22366;-83
2023/05/30 10:57:52;;;;;;;;;;;;;;;;;;137455;1274;22291;-82
2023/05/30 11:00:55;;;;;;;;;;;;;;;;;;137421;1274;22332;-83
2023/05/30 11:03:57;;;;;;;;;;;;;;;;;;137400;1274;22352;-82
2023/05/30 11:07:00;;;;;;;;;;;;;;;;;;137375;1274;22813;-82
2023/05/30 11:10:02;;;;;;;;;;;;;;;;;;137365;1274;22275;-83
2023/05/30 11:13:05;;;;;;;;;;;;;;;;;;137347;1274;22255;-83
2023/05/30 11:16:07;;;;;;;;;;;;;;;;;;137361;1274;22269;-83
2023/05/30 11:19:10;;;;;;;;;;;;;;;;;;137373;1274;22952;-81
2023/05/30 11:22:12;;;;;;;;;;;;;;;;;;137398;1274;22477;-83
2023/05/30 11:25:15;;;;;;;;;;;;;;;;;;137428;1274;22269;-83
2023/05/30 11:28:18;;;;;;;;;;;;;;;;;;137430;1274;22555;-83
2023/05/30 11:31:21;;;;;;;;;;;;;;;;;;137459;1274;22351;-83
2023/05/30 11:34:23;;;;;;;;;;;;;;;;;;137409;1274;22317;-82
2023/05/30 11:37:26;;;;;;;;;;;;;;;;;;137432;1270;22288;-82
2023/05/30 11:40:29;;;;;;;;;;;;;;;;;;137495;1274;22603;-83
2023/05/30 11:43:31;;;;;;;;;;;;;;;;;;137492;1274;22941;-82
2023/05/30 11:46:34;;;;;;;;;;;;;;;;;;137425;1274;23170;-83
2023/05/30 11:49:37;;;;;;;;;;;;;;;;;;137452;1274;22319;-83
2023/05/30 11:52:42;;;;;;;;;;;;;;;;;;137398;1274;23230;-83
2023/05/30 11:55:44;;;;;;;;;;;;;;;;;;137429;1274;22339;-82
2023/05/30 11:58:47;;;;;;;;;;;;;;;;;;137431;1274;22467;-84
2023/05/30 12:01:49;;;;;;;;;;;;;;;;;;137430;1270;22348;-81
2023/05/30 12:04:53;;;;;;;;;;;;;;;;;;137307;1274;22350;-82
2023/05/30 12:07:55;;;;;;;;;;;;;;;;;;137459;1274;22276;-82
2023/05/30 12:10:58;;;;;;;;;;;;;;;;;;137321;1274;22432;-81
2023/05/30 12:14:00;;;;;;;;;;;;;;;;;;137352;1274;22331;-82
2023/05/30 12:17:03;;;;;;;;;;;;;;;;;;137371;1274;22320;-83
2023/05/30 12:20:09;;;;;;;;;;;;;;;;;;137398;1273;22370;-81
2023/05/30 12:23:13;;;;;;;;;;;;;;;;;;137313;1274;22601;-81
2023/05/30 12:26:16;;;;;;;;;;;;;;;;;;137391;1267;22298;-79
2023/05/30 12:29:18;;;;;;;;;;;;;;;;;;137403;1274;22325;-79
2023/05/30 12:32:21;;;;;;;;;;;;;;;;;;137392;1274;22305;-82
2023/05/30 12:35:24;;;;;;;;;;;;;;;;;;137365;1274;22849;-83
2023/05/30 12:38:26;;;;;;;;;;;;;;;;;;137368;1274;22407;-82
2023/05/30 12:41:29;;;;;;;;;;;;;;;;;;137330;1274;22329;-82
2023/05/30 12:44:31;;;;;;;;;;;;;;;;;;137354;1274;22428;-82
2023/05/30 12:47:35;;;;;;;;;;;;;;;;;;137363;1274;22756;-82
2023/05/30 12:50:37;;;;;;;;;;;;;;;;;;137399;1269;22291;-82
2023/05/30 12:53:40;;;;;;;;;;;;;;;;;;137374;1274;22437;-84
2023/05/30 12:56:42;;;;;;;;;;;;;;;;;;137395;1274;22859;-82
2023/05/30 12:59:45;;;;;;;;;;;;;;;;;;137375;1274;22286;-82
2023/05/30 13:02:47;;;;;;;;;;;;;;;;;;137403;1274;22357;-81
2023/05/30 13:05:50;;;;;;;;;;;;;;;;;;137435;1274;22327;-82
2023/05/30 13:08:52;;;;;;;;;;;;;;;;;;137414;1274;22665;-80
2023/05/30 13:11:55;;;;;;;;;;;;;;;;;;137452;1270;22320;-83
2023/05/30 13:14:58;;;;;;;;;;;;;;;;;;137406;1274;22281;-80
2023/05/30 13:18:01;;;;;;;;;;;;;;;;;;137368;1274;22473;-83
2023/05/30 13:21:04;;;;;;;;;;;;;;;;;;137329;1274;22824;-76
2023/05/30 13:24:06;;;;;;;;;;;;;;;;;;137346;1274;22361;-79
2023/05/30 13:27:11;;;;;;;;;;;;;;;;;;137321;1267;22343;-81
2023/05/30 13:30:13;;;;;;;;;;;;;;;;;;137349;1274;22773;-81
2023/05/30 13:33:16;;;;;;;;;;;;;;;;;;137323;1274;22809;-82
2023/05/30 13:36:21;;;;;;;;;;;;;;;;;;137354;1274;22336;-82
2023/05/30 13:39:23;;;;;;;;;;;;;;;;;;137363;1274;22284;-83
2023/05/30 13:42:26;;;;;;;;;;;;;;;;;;137268;1274;22471;-83
2023/05/30 13:45:28;;;;;;;;;;;;;;;;;;137408;1274;22331;-81
2023/05/30 13:48:31;;;;;;;;;;;;;;;;;;137454;1274;22404;-82
2023/05/30 13:51:33;;;;;;;;;;;;;;;;;;137430;1274;22286;-81
2023/05/30 13:54:40;;;;;;;;;;;;;;;;;;137355;1274;22866;-82
2023/05/30 13:57:42;;;;;;;;;;;;;;;;;;137410;1274;22286;-80
2023/05/30 14:00:45;;;;;;;;;;;;;;;;;;137382;1270;22846;-82
2023/05/30 14:03:47;;;;;;;;;;;;;;;;;;137410;1274;22342;-82
2023/05/30 14:06:50;;;;;;;;;;;;;;;;;;137464;1274;22308;-82
2023/05/30 14:09:53;;;;;;;;;;;;;;;;;;137428;1274;22286;-81
2023/05/30 14:12:56;;;;;;;;;;;;;;;;;;137422;1274;22303;-83
2023/05/30 14:15:58;;;;;;;;;;;;;;;;;;137437;1274;22335;-80
2023/05/30 14:19:04;;;;;;;;;;;;;;;;;;137422;1274;22267;-82
2023/05/30 14:22:08;;;;;;;;;;;;;;;;;;137435;1274;22495;-81
2023/05/30 14:25:10;;;;;;;;;;;;;;;;;;137425;1274;22347;-81
2023/05/30 14:28:13;;;;;;;;;;;;;;;;;;137409;1274;22334;-82
2023/05/30 14:31:16;;;;;;;;;;;;;;;;;;137377;1274;22286;-81
2023/05/30 14:34:18;;;;;;;;;;;;;;;;;;137387;1270;22300;-83
2023/05/30 14:37:20;;;;;;;;;;;;;;;;;;137452;1274;22355;-82
2023/05/30 14:40:23;;;;;;;;;;;;;;;;;;137464;1274;22345;-82
2023/05/30 14:43:25;;;;;;;;;;;;;;;;;;137467;1274;22491;-82
2023/05/30 14:46:28;;;;;;;;;;;;;;;;;;137419;1274;22343;-82
2023/05/30 14:49:30;;;;;;;;;;;;;;;;;;137448;1274;22814;-81
2023/05/30 14:52:33;;;;;;;;;;;;;;;;;;137391;1274;22491;-81
2023/05/30 14:55:35;;;;;;;;;;;;;;;;;;137487;1274;22508;-81
2023/05/30 14:58:38;;;;;;;;;;;;;;;;;;137535;1270;22403;-81
2023/05/30 15:01:40;;;;;;;;;;;;;;;;;;137459;1274;22499;-81
2023/05/30 15:04:43;;;;;;;;;;;;;;;;;;137455;1274;22513;-81
2023/05/30 15:07:46;;;;;;;;;;;;;;;;;;137486;1274;22485;-82
2023/05/30 15:10:49;;;;;;;;;;;;;;;;;;137608;1274;22342;-81
2023/05/30 15:13:51;;;;;;;;;;;;;;;;;;137603;1274;22336;-80
2023/05/30 15:16:54;;;;;;;;;;;;;;;;;;137551;1274;22325;-80
2023/05/30 15:19:56;;;;;;;;;;;;;;;;;;137421;1274;22508;-81
2023/05/30 15:22:59;;;;;;;;;;;;;;;;;;137566;1274;22403;-82
2023/05/30 15:26:02;;;;;;;;;;;;;;;;;;137452;1274;22420;-82
2023/05/30 15:29:04;;;;;;;;;;;;;;;;;;137555;1274;22680;-84
2023/05/30 15:32:07;;;;;;;;;;;;;;;;;;137345;1274;22517;-84
2023/05/30 15:35:10;;;;;;;;;;;;;;;;;;137104;1274;22498;-83
2023/05/30 15:38:12;;;;;;;;;;;;;;;;;;137461;1274;22370;-82
2023/05/30 15:41:15;;;;;;;;;;;;;;;;;;137463;1274;22350;-81
2023/05/30 15:44:18;;;;;;;;;;;;;;;;;;137483;1274;22424;-82
2023/05/30 15:47:20;;;;;;;;;;;;;;;;;;137547;1274;22275;-82
2023/05/30 15:50:23;;;;;;;;;;;;;;;;;;137463;1274;22494;-80
2023/05/30 15:53:25;;;;;;;;;;;;;;;;;;137510;1270;22509;-82
2023/05/30 15:56:28;;;;;;;;;;;;;;;;;;137490;1271;22517;-82
2023/05/30 15:59:30;;;;;;;;;;;;;;;;;;137504;1266;23008;-83
2023/05/30 16:02:33;;;;;;;;;;;;;;;;;;137500;1274;22318;-83
2023/05/30 16:05:35;;;;;;;;;;;;;;;;;;137494;1270;22731;-84
2023/05/30 16:08:38;;;;;;;;;;;;;;;;;;137504;1266;22302;-84
2023/05/30 16:11:43;;;;;;;;;;;;;;;;;;137548;1274;22543;-81
2023/05/30 16:14:46;;;;;;;;;;;;;;;;;;137543;1274;22975;-83
2023/05/30 16:17:49;;;;;;;;;;;;;;;;;;137538;1274;22412;-82
2023/05/30 16:20:51;;;;;;;;;;;;;;;;;;137562;1274;22845;-83
2023/05/30 16:23:54;;;;;;;;;;;;;;;;;;137540;1274;22427;-83
2023/05/30 16:26:56;;;;;;;;;;;;;;;;;;137459;1274;22499;-83
2023/05/30 16:29:59;;;;;;;;;;;;;;;;;;137397;1274;22563;-83
2023/05/30 16:33:02;;;;;;;;;;;;;;;;;;137174;1274;22803;-84
2023/05/30 16:36:06;;;;;;;;;;;;;;;;;;137593;1274;22818;-84
2023/05/30 16:39:09;;;;;;;;;;;;;;;;;;137509;1274;22388;-85
2023/05/30 16:42:11;;;;;;;;;;;;;;;;;;137523;1271;22487;-85
2023/05/30 16:45:14;;;;;;;;;;;;;;;;;;137383;1274;22534;-83
2023/05/30 16:48:17;;;;;;;;;;;;;;;;;;137607;1274;22615;-83
2023/05/30 16:51:19;;;;;;;;;;;;;;;;;;137417;1274;22451;-85
2023/05/30 16:54:22;;;;;;;;;;;;;;;;;;137440;1274;22598;-81
2023/05/30 16:57:24;;;;;;;;;;;;;;;;;;137363;1274;22525;-82
2023/05/30 17:00:27;;;;;;;;;;;;;;;;;;137544;1274;22768;-81
2023/05/30 17:03:29;;;;;;;;;;;;;;;;;;137509;1274;22324;-82
2023/05/30 17:06:33;;;;;;;;;;;;;;;;;;137525;1274;23029;-82
2023/05/30 17:09:35;;;;;;;;;;;;;;;;;;137453;1274;22272;-82
2023/05/30 17:12:38;;;;;;;;;;;;;;;;;;137533;1274;22788;-84
2023/05/30 17:15:40;;;;;;;;;;;;;;;;;;137480;1274;22417;-83
2023/05/30 17:18:43;;;;;;;;;;;;;;;;;;137565;1274;22833;-85
2023/05/30 17:21:45;;;;;;;;;;;;;;;;;;137486;1274;22548;-84
2023/05/30 17:24:48;;;;;;;;;;;;;;;;;;137456;1274;23186;-84
2023/05/30 17:27:50;;;;;;;;;;;;;;;;;;137469;1274;22543;-84
2023/05/30 17:30:52;;;;;;;;;;;;;;;;;;137580;1274;22754;-83
2023/05/30 17:34:10;;;;;;;;;;;;;;;;;;137361;1274;22556;-84
2023/05/30 17:37:14;;;;;;;;;;;;;;;;;;137453;1274;22517;-84
2023/05/30 17:40:18;;;;;;;;;;;;;;;;;;137459;1275;22485;-83
2023/05/30 17:43:22;;;;;;;;;;;;;;;;;;137520;1274;22496;-85
2023/05/30 17:46:25;;;;;;;;;;;;;;;;;;137535;1266;22289;-84
2023/05/30 17:49:27;;;;;;;;;;;;;;;;;;137534;1274;22653;-84
2023/05/30 17:52:30;;;;;;;;;;;;;;;;;;137571;1274;22843;-86
2023/05/30 17:55:32;;;;;;;;;;;;;;;;;;137472;1274;22512;-85
2023/05/30 17:58:35;;;;;;;;;;;;;;;;;;137522;1274;22388;-84
2023/05/30 18:01:37;;;;;;;;;;;;;;;;;;137445;1274;22507;-84
2023/05/30 18:04:40;;;;;;;;;;;;;;;;;;137549;1274;22547;-83
2023/05/30 18:07:44;;;;;;;;;;;;;;;;;;137472;1259;22516;-82
2023/05/30 18:10:46;;;;;;;;;;;;;;;;;;137439;1274;22508;-85
2023/05/30 18:13:49;;;;;;;;;;;;;;;;;;137383;1272;23052;-84
2023/05/30 18:16:52;;;;;;;;;;;;;;;;;;137438;1274;22480;-85
2023/05/30 18:19:55;;;;;;;;;;;;;;;;;;137514;1274;22275;-84
2023/05/30 18:22:57;;;;;;;;;;;;;;;;;;137534;1274;22560;-84
2023/05/30 18:26:00;;;;;;;;;;;;;;;;;;137375;1274;22528;-85
2023/05/30 18:29:02;;;;;;;;;;;;;;;;;;137556;1274;22449;-84
2023/05/30 18:32:06;;;;;;;;;;;;;;;;;;137564;1274;22518;-83
2023/05/30 18:35:09;;;;;;;;;;;;;;;;;;137474;1274;22543;-85
2023/05/30 18:38:12;;;;;;;;;;;;;;;;;;137549;1274;22325;-85
2023/05/30 18:41:14;;;;;;;;;;;;;;;;;;137535;1272;22531;-84
2023/05/30 18:44:17;;;;;;;;;;;;;;;;;;137382;1274;22496;-84
2023/05/30 18:47:19;;;;;;;;;;;;;;;;;;137498;1268;22574;-85
2023/05/30 18:50:22;;;;;;;;;;;;;;;;;;137586;1274;22865;-84
2023/05/30 18:53:24;;;;;;;;;;;;;;;;;;137470;1272;22520;-87
2023/05/30 18:56:27;;;;;;;;;;;;;;;;;;137037;1274;379908;-84
2023/05/30 18:59:29;;;;;;;;;;;;;;;;;;137535;1274;22421;-87
2023/05/30 19:02:32;;;;;;;;;;;;;;;;;;137504;1272;22468;-84
2023/05/30 19:05:38;;;;;;;;;;;;;;;;;;137427;1274;22564;-85
2023/05/30 19:08:41;;;;;;;;;;;;;;;;;;137506;1274;22284;-85
2023/05/30 19:11:43;;;;;;;;;;;;;;;;;;137559;1274;22562;-86
2023/05/30 19:14:46;;;;;;;;;;;;;;;;;;137511;1274;22504;-83
2023/05/30 19:17:48;;;;;;;;;;;;;;;;;;137325;1274;22511;-84
2023/05/30 19:20:51;;;;;;;;;;;;;;;;;;137079;1275;22532;-85
2023/05/30 19:23:53;;;;;;;;;;;;;;;;;;137468;1274;22558;-85
2023/05/30 19:26:56;;;;;;;;;;;;;;;;;;137491;1274;22497;-84
2023/05/30 19:29:58;;;;;;;;;;;;;;;;;;137145;1274;22640;-84
2023/05/30 19:33:01;;;;;;;;;;;;;;;;;;137481;1274;22704;-84
2023/05/30 19:36:05;;;;;;;;;;;;;;;;;;137452;1274;22492;-84
2023/05/30 19:39:08;;;;;;;;;;;;;;;;;;137535;1274;22237;-84
2023/05/30 19:42:10;;;;;;;;;;;;;;;;;;137479;1274;22515;-85
2023/05/30 19:45:16;;;;;;;;;;;;;;;;;;137253;1270;22489;-85
2023/05/30 19:48:18;;;;;;;;;;;;;;;;;;137474;1274;22557;-83
2023/05/30 19:51:21;;;;;;;;;;;;;;;;;;137533;1274;23061;-83
2023/05/30 19:54:23;;;;;;;;;;;;;;;;;;137551;1274;22465;-84
2023/05/30 19:57:26;;;;;;;;;;;;;;;;;;137723;1274;22577;-82
2023/05/30 20:00:30;;;;;;;;;;;;;;;;;;137438;1274;22568;-82
2023/05/30 20:03:32;;;;;;;;;;;;;;;;;;137401;1274;22559;-83
2023/05/30 20:06:35;;;;;;;;;;;;;;;;;;137419;1274;22577;-83
2023/05/30 20:09:37;;;;;;;;;;;;;;;;;;137424;1263;22542;-83
2023/05/30 20:12:40;;;;;;;;;;;;;;;;;;137365;1274;22545;-83
2023/05/30 20:15:42;;;;;;;;;;;;;;;;;;137497;1274;22503;-83
2023/05/30 20:18:45;;;;;;;;;;;;;;;;;;137479;1274;22434;-84
2023/05/30 20:21:47;;;;;;;;;;;;;;;;;;137461;1274;22264;-85
2023/05/30 20:24:50;;;;;;;;;;;;;;;;;;137447;1274;22589;-85
2023/05/30 20:27:52;;;;;;;;;;;;;;;;;;137419;1274;22503;-84